createdAt,value
2019-01-28T00:00:57.737Z,4.14
2019-01-28T00:03:26.803Z,4.07
2019-01-28T00:05:54.148Z,3.88
2019-01-28T00:08:21.957Z,3.91
2019-01-28T00:10:51.314Z,3.95
2019-01-28T00:13:19.073Z,3.81
2019-01-28T00:15:49.505Z,3.90
2019-01-28T00:18:18.415Z,3.61
2019-01-28T00:20:45.747Z,3.89
2019-01-28T00:23:12.959Z,3.77
2019-01-28T00:25:40.022Z,3.79
2019-01-28T00:28:07.342Z,3.78
2019-01-28T00:30:34.752Z,3.83
2019-01-28T00:33:01.845Z,3.86
2019-01-28T00:35:31.811Z,3.92
2019-01-28T00:37:59.200Z,3.92
2019-01-28T00:40:27.606Z,3.96
2019-01-28T00:42:54.991Z,3.78
2019-01-28T00:45:22.094Z,3.82
2019-01-28T00:47:49.183Z,3.66
2019-01-28T00:50:17.853Z,3.57
2019-01-28T00:52:44.950Z,3.63
2019-01-28T00:55:12.126Z,3.78
2019-01-28T00:57:39.186Z,3.80
2019-01-28T01:00:10.154Z,3.57
2019-01-28T01:02:37.622Z,3.71
2019-01-28T01:05:04.889Z,3.71
2019-01-28T01:07:34.012Z,3.71
2019-01-28T01:10:01.067Z,3.71
2019-01-28T01:12:28.242Z,3.74
2019-01-28T01:14:55.383Z,3.44
2019-01-28T01:17:24.660Z,3.30
2019-01-28T01:19:52.697Z,3.61
2019-01-28T01:22:21.994Z,3.46
2019-01-28T01:24:49.555Z,3.61
2019-01-28T01:27:16.736Z,3.26
2019-01-28T01:29:44.003Z,3.46
2019-01-28T01:32:11.321Z,3.55
2019-01-28T01:34:39.381Z,3.59
2019-01-28T01:37:07.149Z,3.45
2019-01-28T01:39:34.498Z,3.39
2019-01-28T01:42:02.169Z,3.34
2019-01-28T01:44:29.825Z,3.32
2019-01-28T01:46:57.284Z,3.38
2019-01-28T01:49:25.381Z,3.27
2019-01-28T01:51:53.547Z,3.20
2019-01-28T01:54:21.699Z,3.32
2019-01-28T01:56:50.799Z,3.42
2019-01-28T01:59:18.979Z,3.50
2019-01-28T02:01:47.083Z,3.42
2019-01-28T02:04:14.251Z,3.45
2019-01-28T02:06:42.548Z,3.40
2019-01-28T02:09:09.614Z,3.60
2019-01-28T02:11:36.878Z,3.56
2019-01-28T02:14:04.058Z,3.38
2019-01-28T02:16:31.136Z,3.40
2019-01-28T02:18:58.207Z,3.44
2019-01-28T02:21:26.443Z,3.42
2019-01-28T02:23:53.534Z,3.55
2019-01-28T02:26:20.592Z,3.69
2019-01-28T02:28:47.674Z,3.81
2019-01-28T02:31:14.725Z,3.67
2019-01-28T02:33:42.474Z,3.73
2019-01-28T02:36:10.767Z,3.85
2019-01-28T02:38:37.831Z,3.96
2019-01-28T02:41:04.912Z,3.82
2019-01-28T02:43:33.473Z,3.81
2019-01-28T02:46:00.523Z,4.03
2019-01-28T02:48:28.036Z,4.08
2019-01-28T02:50:55.439Z,4.13
2019-01-28T02:53:22.510Z,4.18
2019-01-28T02:55:49.594Z,4.20
2019-01-28T02:58:19.231Z,4.13
2019-01-28T03:00:46.823Z,4.09
2019-01-28T03:03:15.993Z,4.33
2019-01-28T03:05:43.418Z,4.12
2019-01-28T03:08:11.477Z,3.98
2019-01-28T03:10:38.541Z,3.81
2019-01-28T03:13:06.095Z,3.77
2019-01-28T03:15:33.917Z,3.80
2019-01-28T03:18:01.378Z,3.85
2019-01-28T03:20:29.550Z,3.93
2019-01-28T03:22:57.212Z,3.79
2019-01-28T03:25:24.977Z,3.96
2019-01-28T03:27:52.580Z,4.12
2019-01-28T03:30:20.573Z,3.90
2019-01-28T03:32:47.926Z,3.93
2019-01-28T03:35:15.625Z,3.91
2019-01-28T03:37:42.785Z,3.91
2019-01-28T03:40:12.716Z,4.11
2019-01-28T03:42:40.346Z,3.91
2019-01-28T03:45:10.140Z,3.76
2019-01-28T03:47:37.815Z,3.64
2019-01-28T03:50:05.688Z,3.78
2019-01-28T03:52:33.142Z,3.31
2019-01-28T03:55:00.909Z,3.55
2019-01-28T03:57:28.202Z,3.51
2019-01-28T03:59:57.073Z,3.51
2019-01-28T04:02:24.343Z,3.55
2019-01-28T04:04:51.413Z,3.58
2019-01-28T04:07:18.450Z,3.43
2019-01-28T04:09:45.489Z,3.47
2019-01-28T04:12:12.897Z,3.41
2019-01-28T04:14:41.378Z,3.46
2019-01-28T04:17:09.457Z,3.45
2019-01-28T04:19:37.310Z,3.54
2019-01-28T04:22:04.668Z,3.49
2019-01-28T04:24:32.327Z,3.65
2019-01-28T04:27:00.193Z,3.60
2019-01-28T04:29:27.868Z,3.52
2019-01-28T04:31:55.311Z,3.66
2019-01-28T04:34:22.691Z,3.57
2019-01-28T04:36:49.742Z,3.66
2019-01-28T04:39:17.481Z,3.68
2019-01-28T04:41:44.835Z,3.79
2019-01-28T04:44:12.189Z,3.92
2019-01-28T04:46:40.154Z,4.15
2019-01-28T04:49:07.214Z,3.74
2019-01-28T04:51:34.556Z,4.05
2019-01-28T04:54:02.327Z,4.13
2019-01-28T04:56:29.981Z,3.87
2019-01-28T04:58:58.410Z,3.91
2019-01-28T05:01:26.430Z,4.22
2019-01-28T05:03:53.532Z,4.18
2019-01-28T05:06:20.836Z,4.20
2019-01-28T05:08:48.186Z,3.81
2019-01-28T05:11:15.232Z,3.93
2019-01-28T05:13:42.590Z,4.34
2019-01-28T05:16:10.053Z,4.26
2019-01-28T05:18:37.405Z,4.00
2019-01-28T05:21:05.064Z,4.49
2019-01-28T05:23:32.737Z,4.23
2019-01-28T05:26:00.184Z,4.41
2019-01-28T05:28:28.163Z,4.10
2019-01-28T05:30:55.914Z,4.02
2019-01-28T05:33:22.966Z,4.15
2019-01-28T05:35:50.842Z,4.41
2019-01-28T05:38:20.058Z,4.19
2019-01-28T05:40:47.797Z,3.89
2019-01-28T05:43:14.866Z,4.06
2019-01-28T05:45:44.151Z,4.11
2019-01-28T05:48:11.211Z,3.81
2019-01-28T05:50:38.314Z,3.75
2019-01-28T05:53:05.403Z,3.70
2019-01-28T05:55:32.465Z,3.83
2019-01-28T05:57:59.922Z,3.95
2019-01-28T06:00:35.201Z,3.67
2019-01-28T06:03:02.294Z,3.95
2019-01-28T06:05:29.444Z,3.86
2019-01-28T06:07:58.102Z,4.07
2019-01-28T06:10:25.151Z,3.88
2019-01-28T06:12:52.216Z,3.84
2019-01-28T06:15:19.490Z,3.89
2019-01-28T06:17:48.711Z,3.88
2019-01-28T06:20:18.029Z,3.77
2019-01-28T06:22:46.404Z,4.08
2019-01-28T06:25:13.447Z,4.01
2019-01-28T06:27:40.493Z,4.09
2019-01-28T06:30:11.980Z,4.05
2019-01-28T06:32:40.051Z,4.00
2019-01-28T06:35:07.261Z,3.92
2019-01-28T06:37:37.270Z,3.83
2019-01-28T06:40:06.608Z,4.04
2019-01-28T06:42:33.858Z,3.99
2019-01-28T06:45:02.916Z,3.99
2019-01-28T06:47:29.994Z,4.03
2019-01-28T06:49:58.868Z,4.05
2019-01-28T06:52:25.971Z,3.87
2019-01-28T06:54:53.039Z,4.04
2019-01-28T06:57:20.105Z,3.91
2019-01-28T06:59:49.091Z,4.07
2019-01-28T07:02:16.162Z,4.10
2019-01-28T07:04:44.350Z,4.22
2019-01-28T07:07:11.468Z,4.19
2019-01-28T07:09:40.003Z,4.17
2019-01-28T07:12:07.105Z,3.93
2019-01-28T07:14:35.678Z,4.45
2019-01-28T07:17:04.543Z,4.40
2019-01-28T07:19:31.614Z,4.46
2019-01-28T07:21:58.697Z,4.27
2019-01-28T07:24:25.767Z,4.50
2019-01-28T07:26:54.663Z,4.48
2019-01-28T07:29:22.107Z,4.67
2019-01-28T07:31:49.459Z,4.57
2019-01-28T07:34:17.864Z,4.54
2019-01-28T07:36:45.724Z,4.78
2019-01-28T07:39:14.789Z,4.36
2019-01-28T07:41:42.903Z,4.43
2019-01-28T07:44:09.962Z,4.69
2019-01-28T07:46:37.534Z,4.40
2019-01-28T07:49:04.585Z,4.40
2019-01-28T07:51:31.663Z,4.28
2019-01-28T07:53:58.718Z,4.14
2019-01-28T07:56:27.591Z,4.27
2019-01-28T07:58:55.664Z,4.47
2019-01-28T08:01:23.150Z,4.66
2019-01-28T08:03:50.898Z,4.54
2019-01-28T08:06:18.675Z,4.42
2019-01-28T08:08:46.118Z,4.30
2019-01-28T08:11:13.745Z,4.33
2019-01-28T08:13:41.134Z,4.46
2019-01-28T08:16:08.338Z,4.44
2019-01-28T08:18:36.668Z,4.47
2019-01-28T08:21:05.553Z,4.80
2019-01-28T08:23:32.621Z,4.71
2019-01-28T08:25:59.678Z,4.60
2019-01-28T08:28:26.845Z,4.85
2019-01-28T08:30:54.989Z,4.67
2019-01-28T08:33:22.163Z,4.70
2019-01-28T08:35:49.196Z,4.69
2019-01-28T08:38:17.457Z,4.73
2019-01-28T08:40:44.609Z,4.82
2019-01-28T08:43:11.774Z,4.99
2019-01-28T08:45:38.927Z,4.70
2019-01-28T08:48:07.270Z,5.05
2019-01-28T08:50:34.654Z,5.10
2019-01-28T08:53:02.318Z,5.44
2019-01-28T08:55:29.469Z,5.36
2019-01-28T08:57:57.610Z,5.16
2019-01-28T09:00:28.165Z,5.38
2019-01-28T09:02:55.233Z,5.22
2019-01-28T09:05:22.588Z,5.30
2019-01-28T09:07:50.106Z,5.23
2019-01-28T09:10:18.258Z,5.16
2019-01-28T09:12:47.247Z,4.94
2019-01-28T09:15:16.252Z,4.98
2019-01-28T09:17:43.326Z,4.92
2019-01-28T09:20:13.330Z,4.87
2019-01-28T09:22:40.890Z,4.92
2019-01-28T09:25:09.914Z,5.42
2019-01-28T09:27:37.541Z,5.18
2019-01-28T09:30:06.633Z,4.89
2019-01-28T09:32:36.181Z,4.93
2019-01-28T09:35:04.089Z,5.22
2019-01-28T09:37:31.138Z,5.22
2019-01-28T09:39:58.593Z,5.37
2019-01-28T09:42:25.649Z,5.27
2019-01-28T09:44:52.738Z,5.01
2019-01-28T09:47:21.633Z,4.80
2019-01-28T09:49:49.885Z,4.85
2019-01-28T09:52:17.128Z,4.93
2019-01-28T09:54:44.453Z,4.94
2019-01-28T09:57:11.495Z,5.21
2019-01-28T09:59:38.620Z,5.63
2019-01-28T10:02:07.774Z,5.48
2019-01-28T10:04:35.167Z,5.54
2019-01-28T10:07:02.232Z,5.55
2019-01-28T10:09:29.319Z,5.38
2019-01-28T10:11:56.484Z,5.53
2019-01-28T10:14:23.671Z,5.84
2019-01-28T10:16:50.738Z,6.13
2019-01-28T10:19:17.831Z,6.37
2019-01-28T10:21:48.957Z,6.46
2019-01-28T10:24:16.447Z,5.84
2019-01-28T10:26:43.875Z,5.88
2019-01-28T10:29:11.227Z,6.13
2019-01-28T10:31:39.518Z,5.93
2019-01-28T10:34:07.778Z,6.10
2019-01-28T10:36:35.340Z,6.00
2019-01-28T10:39:05.046Z,5.89
2019-01-28T10:41:34.655Z,6.08
2019-01-28T10:44:01.819Z,5.91
2019-01-28T10:46:29.364Z,5.71
2019-01-28T10:48:56.645Z,5.38
2019-01-28T10:51:24.027Z,5.75
2019-01-28T10:53:51.238Z,6.07
2019-01-28T10:56:19.647Z,6.09
2019-01-28T10:58:46.940Z,5.96
2019-01-28T11:01:15.855Z,5.85
2019-01-28T11:03:43.034Z,6.09
2019-01-28T11:06:10.110Z,5.85
2019-01-28T11:08:37.578Z,6.07
2019-01-28T11:11:06.481Z,5.84
2019-01-28T11:13:34.421Z,5.86
2019-01-28T11:16:02.029Z,5.78
2019-01-28T11:18:31.357Z,6.07
2019-01-28T11:20:59.028Z,5.65
2019-01-28T11:23:26.700Z,5.72
2019-01-28T11:25:53.838Z,5.67
2019-01-28T11:28:23.925Z,5.80
2019-01-28T11:30:57.856Z,5.39
2019-01-28T11:33:25.389Z,5.57
2019-01-28T11:35:52.706Z,5.81
2019-01-28T11:38:22.082Z,6.13
2019-01-28T11:40:49.150Z,5.78
2019-01-28T11:43:16.270Z,5.56
2019-01-28T11:45:53.049Z,5.62
2019-01-28T11:48:20.332Z,5.69
2019-01-28T11:50:55.673Z,5.41
2019-01-28T11:53:16.787Z,5.62
2019-01-28T11:55:43.847Z,5.41
2019-01-28T11:58:11.332Z,5.62
2019-01-28T12:01:07.732Z,5.77
2019-01-28T12:03:34.957Z,5.65
2019-01-28T12:06:03.898Z,5.79
2019-01-28T12:08:31.099Z,5.87
2019-01-28T12:10:58.209Z,5.63
2019-01-28T12:13:26.482Z,5.62
2019-01-28T12:15:53.677Z,5.64
2019-01-28T12:18:20.730Z,5.64
2019-01-28T12:20:53.504Z,5.70
2019-01-28T12:23:21.359Z,5.47
2019-01-28T12:25:48.753Z,5.70
2019-01-28T12:28:15.894Z,5.94
2019-01-28T12:30:44.782Z,5.94
2019-01-28T12:33:11.836Z,5.93
2019-01-28T12:35:38.902Z,5.36
2019-01-28T12:38:05.981Z,5.46
2019-01-28T12:40:33.045Z,5.87
2019-01-28T12:43:01.901Z,5.77
2019-01-28T12:45:29.282Z,5.76
2019-01-28T12:47:57.241Z,5.89
2019-01-28T12:50:26.314Z,5.38
2019-01-28T12:52:53.742Z,5.52
2019-01-28T12:55:20.796Z,5.63
2019-01-28T12:57:47.854Z,5.61
2019-01-28T13:00:17.878Z,5.67
2019-01-28T13:02:45.609Z,5.52
2019-01-28T13:05:16.220Z,5.85
2019-01-28T13:07:44.116Z,5.91
2019-01-28T13:10:13.508Z,5.89
2019-01-28T13:12:40.567Z,5.75
2019-01-28T13:15:12.390Z,5.54
2019-01-28T13:17:39.921Z,5.72
2019-01-28T13:20:07.782Z,5.79
2019-01-28T13:22:35.493Z,5.83
2019-01-28T13:25:03.427Z,5.65
2019-01-28T13:27:32.185Z,5.44
2019-01-28T13:30:00.799Z,5.33
2019-01-28T13:32:28.228Z,5.19
2019-01-28T13:34:57.418Z,5.62
2019-01-28T13:37:29.094Z,5.54
2019-01-28T13:39:58.273Z,5.44
2019-01-28T13:42:25.934Z,5.51
2019-01-28T13:44:55.438Z,5.41
2019-01-28T13:47:23.205Z,5.49
2019-01-28T13:49:50.967Z,5.68
2019-01-28T13:52:19.753Z,5.78
2019-01-28T13:54:48.163Z,5.63
2019-01-28T13:57:16.418Z,5.73
2019-01-28T13:59:45.606Z,5.89
2019-01-28T14:02:14.087Z,5.37
2019-01-28T14:04:41.141Z,5.71
2019-01-28T14:07:09.614Z,5.67
2019-01-28T14:09:40.452Z,5.75
2019-01-28T14:12:07.914Z,5.82
2019-01-28T14:14:35.987Z,5.94
2019-01-28T14:17:03.228Z,5.27
2019-01-28T14:19:30.995Z,5.25
2019-01-28T14:21:58.820Z,5.53
2019-01-28T14:24:27.244Z,5.43
2019-01-28T14:26:54.765Z,5.62
2019-01-28T14:29:21.815Z,5.58
2019-01-28T14:31:49.062Z,5.58
2019-01-28T14:34:16.119Z,5.28
2019-01-28T14:36:43.190Z,5.62
2019-01-28T14:39:13.812Z,5.63
2019-01-28T14:41:40.145Z,5.62
2019-01-28T14:44:07.310Z,5.66
2019-01-28T14:46:35.792Z,5.04
2019-01-28T14:49:03.756Z,5.38
2019-01-28T14:51:31.518Z,5.51
2019-01-28T14:54:00.071Z,5.64
2019-01-28T14:56:29.233Z,5.62
2019-01-28T14:58:58.226Z,5.64
2019-01-28T15:01:25.751Z,5.23
2019-01-28T15:03:53.660Z,5.61
2019-01-28T15:06:20.845Z,5.24
2019-01-28T15:08:48.099Z,5.58
2019-01-28T15:11:15.138Z,5.42
2019-01-28T15:13:42.237Z,5.10
2019-01-28T15:16:09.401Z,5.15
2019-01-28T15:18:36.566Z,5.25
2019-01-28T15:21:03.622Z,5.25
2019-01-28T15:23:31.755Z,5.43
2019-01-28T15:25:58.962Z,5.40
2019-01-28T15:28:26.342Z,5.55
2019-01-28T15:30:54.017Z,5.62
2019-01-28T15:33:21.556Z,5.45
2019-01-28T15:35:50.040Z,5.53
2019-01-28T15:38:18.011Z,5.67
2019-01-28T15:40:45.210Z,5.35
2019-01-28T15:43:12.375Z,5.30
2019-01-28T15:45:42.021Z,5.39
2019-01-28T15:48:13.347Z,5.36
2019-01-28T15:50:40.394Z,5.26
2019-01-28T15:53:08.289Z,5.11
2019-01-28T15:55:39.041Z,5.52
2019-01-28T15:58:07.090Z,5.45
2019-01-28T16:00:37.308Z,5.60
2019-01-28T16:03:05.472Z,5.43
2019-01-28T16:05:32.863Z,5.55
2019-01-28T16:08:01.078Z,5.34
2019-01-28T16:10:28.125Z,4.83
2019-01-28T16:12:55.645Z,4.71
2019-01-28T16:15:29.316Z,4.13
2019-01-28T16:17:56.979Z,4.21
2019-01-28T16:20:25.047Z,4.14
2019-01-28T16:22:52.399Z,4.43
2019-01-28T16:25:20.170Z,4.29
2019-01-28T16:27:47.930Z,4.14
2019-01-28T16:30:17.842Z,4.05
2019-01-28T16:32:45.223Z,3.79
2019-01-28T16:35:13.163Z,3.59
2019-01-28T16:37:40.525Z,3.63
2019-01-28T16:40:09.805Z,3.38
2019-01-28T16:42:36.966Z,3.27
2019-01-28T16:45:04.840Z,3.81
2019-01-28T16:47:35.370Z,3.20
2019-01-28T16:50:04.269Z,3.33
2019-01-28T16:52:31.919Z,3.57
2019-01-28T16:54:59.805Z,3.83
2019-01-28T16:57:27.142Z,3.30
2019-01-28T16:59:54.596Z,3.08
2019-01-28T17:02:21.767Z,2.81
2019-01-28T17:04:48.939Z,3.04
2019-01-28T17:07:17.689Z,2.93
2019-01-28T17:09:45.450Z,3.41
2019-01-28T17:12:12.904Z,2.89
2019-01-28T17:14:42.818Z,3.18
2019-01-28T17:17:10.480Z,3.23
2019-01-28T17:19:37.561Z,3.08
2019-01-28T17:22:06.446Z,2.94
2019-01-28T17:24:34.594Z,3.13
2019-01-28T17:27:01.683Z,3.25
2019-01-28T17:29:28.716Z,3.19
2019-01-28T17:31:56.345Z,2.96
2019-01-28T17:34:23.726Z,3.10
2019-01-28T17:36:52.896Z,3.04
2019-01-28T17:39:19.924Z,2.99
2019-01-28T17:41:47.610Z,3.04
2019-01-28T17:44:14.644Z,2.82
2019-01-28T17:46:42.417Z,2.94
2019-01-28T17:49:09.485Z,2.59
2019-01-28T17:51:37.433Z,2.72
2019-01-28T17:54:04.993Z,2.50
2019-01-28T17:56:32.691Z,2.58
2019-01-28T17:58:59.733Z,2.48
2019-01-28T18:01:26.772Z,2.32
2019-01-28T18:03:53.944Z,2.45
2019-01-28T18:06:20.976Z,2.11
2019-01-28T18:08:48.013Z,2.46
2019-01-28T18:11:15.178Z,2.41
2019-01-28T18:13:42.806Z,2.25
2019-01-28T18:16:10.286Z,2.01
2019-01-28T18:18:38.254Z,2.16
2019-01-28T18:21:05.894Z,2.23
2019-01-28T18:24:01.823Z,2.70
2019-01-28T18:26:29.683Z,2.61
2019-01-28T18:28:58.367Z,2.36
2019-01-28T18:31:25.447Z,1.97
2019-01-28T18:33:52.469Z,2.09
2019-01-28T18:36:19.818Z,2.43
2019-01-28T18:38:46.877Z,2.02
2019-01-28T18:41:14.256Z,1.95
2019-01-28T18:43:41.809Z,1.83
2019-01-28T18:46:09.184Z,1.79
2019-01-28T18:48:36.383Z,1.85
2019-01-28T18:51:03.411Z,1.99
2019-01-28T18:53:30.507Z,2.03
2019-01-28T18:55:57.642Z,2.04
2019-01-28T18:58:25.030Z,1.74
2019-01-28T19:00:52.747Z,1.93
2019-01-28T19:03:20.823Z,2.06
2019-01-28T19:05:55.630Z,1.74
2019-01-28T19:08:39.654Z,1.75
2019-01-28T19:11:32.186Z,1.83
2019-01-28T19:14:05.490Z,1.74
2019-01-28T19:17:10.185Z,1.98
2019-01-28T19:19:55.474Z,2.11
2019-01-28T19:22:26.347Z,1.92
2019-01-28T19:24:53.497Z,1.92
2019-01-28T19:27:20.543Z,1.94
2019-01-28T19:29:47.604Z,1.98
2019-01-28T19:32:14.638Z,1.79
2019-01-28T19:34:41.898Z,1.99
2019-01-28T19:37:10.033Z,2.31
2019-01-28T19:39:37.089Z,2.16
2019-01-28T19:42:04.894Z,1.66
2019-01-28T19:44:32.257Z,1.67
2019-01-28T19:46:59.716Z,1.69
2019-01-28T19:49:27.093Z,1.77
2019-01-28T19:51:55.201Z,1.65
2019-01-28T19:54:22.532Z,1.59
2019-01-28T19:56:51.181Z,1.78
2019-01-28T19:59:18.215Z,1.81
2019-01-28T20:01:45.252Z,1.74
2019-01-28T20:04:12.385Z,1.55
2019-01-28T20:06:39.424Z,2.08
2019-01-28T20:09:07.630Z,1.97
2019-01-28T20:11:36.691Z,1.91
2019-01-28T20:14:04.939Z,1.97
2019-01-28T20:16:32.268Z,1.89
2019-01-28T20:18:59.652Z,1.45
2019-01-28T20:21:27.075Z,1.88
2019-01-28T20:23:54.878Z,1.78
2019-01-28T20:26:22.106Z,1.70
2019-01-28T20:28:49.961Z,1.75
2019-01-28T20:31:20.091Z,2.15
2019-01-28T20:33:47.330Z,2.10
2019-01-28T20:36:15.447Z,2.32
2019-01-28T20:38:42.490Z,2.54
2019-01-28T20:41:09.830Z,2.17
2019-01-28T20:43:36.903Z,2.12
2019-01-28T20:46:04.319Z,2.26
2019-01-28T20:48:32.178Z,2.53
2019-01-28T20:50:59.264Z,2.14
2019-01-28T20:53:26.753Z,2.14
2019-01-28T20:55:53.789Z,2.19
2019-01-28T20:58:22.027Z,2.73
2019-01-28T21:00:50.181Z,2.47
2019-01-28T21:03:17.528Z,1.98
2019-01-28T21:05:44.570Z,2.67
2019-01-28T21:08:12.562Z,2.62
2019-01-28T21:10:40.407Z,1.91
2019-01-28T21:13:07.918Z,2.20
2019-01-28T21:15:35.352Z,2.55
2019-01-28T21:18:03.191Z,1.99
2019-01-28T21:20:30.954Z,2.49
2019-01-28T21:22:58.006Z,2.24
2019-01-28T21:25:26.587Z,2.16
2019-01-28T21:27:53.945Z,2.51
2019-01-28T21:30:27.724Z,2.28
2019-01-28T21:32:55.800Z,2.73
2019-01-28T21:35:44.008Z,2.63
2019-01-28T21:38:14.482Z,2.51
2019-01-28T21:40:41.563Z,2.52
2019-01-28T21:43:08.610Z,2.62
2019-01-28T21:45:36.445Z,2.54
2019-01-28T21:48:04.123Z,2.20
2019-01-28T21:50:31.662Z,1.70
2019-01-28T21:52:59.121Z,1.97
2019-01-28T21:55:27.061Z,1.60
2019-01-28T21:57:54.960Z,1.42
2019-01-28T22:00:23.243Z,1.55
2019-01-28T22:02:50.509Z,1.51
2019-01-28T22:05:17.553Z,1.76
2019-01-28T22:07:44.606Z,1.54
2019-01-28T22:10:13.270Z,1.27
2019-01-28T22:12:40.319Z,1.46
2019-01-28T22:15:10.618Z,1.61
2019-01-28T22:17:37.690Z,1.63
2019-01-28T22:20:06.475Z,1.62
2019-01-28T22:22:34.552Z,1.63
2019-01-28T22:25:02.208Z,1.73
2019-01-28T22:27:29.976Z,1.52
2019-01-28T22:29:57.366Z,1.54
2019-01-28T22:32:24.733Z,1.45
2019-01-28T22:34:52.450Z,1.28
2019-01-28T22:37:20.312Z,1.28
2019-01-28T22:39:47.367Z,1.52
2019-01-28T22:42:21.192Z,1.44
2019-01-28T22:44:44.611Z,1.48
2019-01-28T22:47:11.674Z,1.14
2019-01-28T22:49:39.263Z,1.23
2019-01-28T22:52:07.912Z,1.00
2019-01-28T22:54:35.572Z,1.00
2019-01-28T22:57:02.867Z,0.98
2019-01-28T22:59:30.290Z,0.71
2019-01-28T23:01:57.339Z,0.54
2019-01-28T23:04:24.442Z,0.80
2019-01-28T23:06:51.611Z,0.77
2019-01-28T23:09:18.997Z,0.91
2019-01-28T23:11:47.001Z,0.60
2019-01-28T23:14:15.145Z,0.77
2019-01-28T23:16:43.016Z,0.51
2019-01-28T23:19:10.293Z,0.71
2019-01-28T23:21:37.339Z,0.34
2019-01-28T23:24:04.385Z,0.48
2019-01-28T23:26:31.462Z,0.73
2019-01-28T23:28:58.498Z,0.48
2019-01-28T23:31:25.592Z,0.29
2019-01-28T23:33:52.643Z,0.42
2019-01-28T23:36:20.030Z,0.55
2019-01-28T23:38:48.303Z,0.38
2019-01-28T23:41:15.521Z,0.07
2019-01-28T23:43:42.869Z,0.25
2019-01-28T23:46:10.837Z,0.27
2019-01-28T23:48:38.293Z,0.30
2019-01-28T23:51:06.618Z,0.17
2019-01-28T23:53:34.704Z,0.24
2019-01-28T23:56:01.752Z,0.39
2019-01-28T23:58:29.884Z,0.19
